createdAt,value
2023-01-17T00:02:11.085Z,10.45
2023-01-17T00:04:56.373Z,11.15
2023-01-17T00:07:43.217Z,10.73
2023-01-17T00:10:16.726Z,10.57
2023-01-17T00:12:55.422Z,11.00
2023-01-17T00:15:26.025Z,9.50
2023-01-17T00:17:53.907Z,10.45
2023-01-17T00:20:50.259Z,10.27
2023-01-17T00:23:40.245Z,10.27
2023-01-17T00:26:16.734Z,11.02
2023-01-17T00:28:44.693Z,11.05
2023-01-17T00:31:14.342Z,10.48
2023-01-17T00:33:41.142Z,10.68
2023-01-17T00:36:08.681Z,10.35
2023-01-17T00:38:37.512Z,10.95
2023-01-17T00:41:13.851Z,11.90
2023-01-17T00:43:59.341Z,10.65
2023-01-17T00:46:45.263Z,10.02
2023-01-17T00:49:31.057Z,11.02
2023-01-17T00:52:16.553Z,9.85
2023-01-17T00:55:02.087Z,9.63
2023-01-17T00:57:47.786Z,9.80
2023-01-17T01:00:33.810Z,10.00
2023-01-17T01:03:19.330Z,9.27
2023-01-17T01:06:04.806Z,9.48
2023-01-17T01:08:51.025Z,8.85
2023-01-17T01:11:39.370Z,8.27
2023-01-17T01:14:26.196Z,9.05
2023-01-17T01:17:11.520Z,7.93
2023-01-17T01:19:56.950Z,6.50
2023-01-17T01:22:42.585Z,8.07
2023-01-17T01:25:28.211Z,8.13
2023-01-17T01:28:25.588Z,7.72
2023-01-17T01:31:11.191Z,7.32
2023-01-17T01:33:38.178Z,6.93
2023-01-17T01:36:08.345Z,6.82
2023-01-17T01:38:35.272Z,7.53
2023-01-17T01:41:02.589Z,6.88
2023-01-17T01:43:58.616Z,7.03
2023-01-17T01:46:36.449Z,7.15
2023-01-17T01:49:08.552Z,7.00
2023-01-17T01:51:51.111Z,6.18
2023-01-17T01:54:25.633Z,6.05
2023-01-17T01:56:54.767Z,6.53
2023-01-17T01:59:23.051Z,6.75
2023-01-17T02:01:53.107Z,5.90
2023-01-17T02:04:21.092Z,6.70
2023-01-17T02:06:51.922Z,7.10
2023-01-17T02:09:20.184Z,6.73
2023-01-17T02:11:48.840Z,7.35
2023-01-17T02:14:17.245Z,6.20
2023-01-17T02:16:53.049Z,6.15
2023-01-17T02:19:57.520Z,5.82
2023-01-17T02:22:24.270Z,6.43
2023-01-17T02:25:18.992Z,6.00
2023-01-17T02:28:26.957Z,5.03
2023-01-17T02:31:04.500Z,5.43
2023-01-17T02:34:10.440Z,5.30
2023-01-17T02:36:47.424Z,4.95
2023-01-17T02:39:21.728Z,4.70
2023-01-17T02:42:00.894Z,4.55
2023-01-17T02:44:27.798Z,6.72
2023-01-17T02:46:57.196Z,6.50
2023-01-17T02:49:30.490Z,5.97
2023-01-17T02:52:16.587Z,6.32
2023-01-17T02:54:43.360Z,6.57
2023-01-17T02:57:10.171Z,6.45
2023-01-17T03:00:00.387Z,6.75
2023-01-17T03:02:51.769Z,7.30
2023-01-17T03:06:07.856Z,7.50
2023-01-17T03:08:35.123Z,7.45
2023-01-17T03:11:02.025Z,7.10
2023-01-17T03:13:28.977Z,6.93
2023-01-17T03:15:55.788Z,7.72
2023-01-17T03:18:22.904Z,6.60
2023-01-17T03:20:49.731Z,6.88
2023-01-17T03:23:16.570Z,7.25
2023-01-17T03:25:43.387Z,6.13
2023-01-17T03:28:10.230Z,7.80
2023-01-17T03:30:37.062Z,7.00
2023-01-17T03:33:04.110Z,7.22
2023-01-17T03:35:30.946Z,6.72
2023-01-17T03:37:57.801Z,7.10
2023-01-17T03:40:24.624Z,6.85
2023-01-17T03:42:51.489Z,5.78
2023-01-17T03:45:18.538Z,5.88
2023-01-17T03:47:45.604Z,6.53
2023-01-17T03:50:13.593Z,6.40
2023-01-17T03:52:40.462Z,6.22
2023-01-17T03:55:07.953Z,6.82
2023-01-17T03:57:34.803Z,7.35
2023-01-17T04:00:01.661Z,6.35
2023-01-17T04:02:28.595Z,6.60
2023-01-17T04:04:55.521Z,4.78
2023-01-17T04:07:23.013Z,5.13
2023-01-17T04:09:50.114Z,5.90
2023-01-17T04:12:17.083Z,6.15
2023-01-17T04:14:43.942Z,5.15
2023-01-17T04:17:13.129Z,5.63
2023-01-17T04:19:41.204Z,5.13
2023-01-17T04:22:08.493Z,5.78
2023-01-17T04:24:35.466Z,4.38
2023-01-17T04:27:04.270Z,5.45
2023-01-17T04:29:31.243Z,4.95
2023-01-17T04:31:58.178Z,5.32
2023-01-17T04:34:25.052Z,4.18
2023-01-17T04:36:51.911Z,5.40
2023-01-17T04:39:18.748Z,5.00
2023-01-17T04:41:45.568Z,5.88
2023-01-17T04:44:12.379Z,4.13
2023-01-17T04:46:39.214Z,6.10
2023-01-17T04:49:06.086Z,4.93
2023-01-17T04:51:33.048Z,4.90
2023-01-17T04:53:59.985Z,5.35
2023-01-17T04:56:26.869Z,5.45
2023-01-17T04:58:53.711Z,6.82
2023-01-17T05:01:20.705Z,6.15
2023-01-17T05:03:48.015Z,5.60
2023-01-17T05:06:15.204Z,5.50
2023-01-17T05:08:42.095Z,6.35
2023-01-17T05:11:09.010Z,5.85
2023-01-17T05:13:35.913Z,5.35
2023-01-17T05:16:02.812Z,5.10
2023-01-17T05:18:29.736Z,5.38
2023-01-17T05:21:04.364Z,4.93
2023-01-17T05:23:31.240Z,4.80
2023-01-17T05:25:58.080Z,4.72
2023-01-17T05:28:25.619Z,4.75
2023-01-17T05:30:52.554Z,4.90
2023-01-17T05:33:19.393Z,5.43
2023-01-17T05:35:46.302Z,4.50
2023-01-17T05:38:13.128Z,4.75
2023-01-17T05:40:39.960Z,5.10
2023-01-17T05:43:06.868Z,4.68
2023-01-17T05:45:34.245Z,4.97
2023-01-17T05:48:02.128Z,4.78
2023-01-17T05:50:34.933Z,4.55
2023-01-17T05:53:10.608Z,4.47
2023-01-17T05:55:39.090Z,4.55
2023-01-17T05:58:08.739Z,5.60
2023-01-17T06:00:37.357Z,2.60
2023-01-17T06:03:04.629Z,4.63
2023-01-17T06:05:31.884Z,4.60
2023-01-17T06:07:59.148Z,4.68
2023-01-17T06:10:26.828Z,4.78
2023-01-17T06:13:08.763Z,4.75
2023-01-17T06:15:37.325Z,4.35
2023-01-17T06:18:12.397Z,5.45
2023-01-17T06:20:40.232Z,3.75
2023-01-17T06:23:10.106Z,5.28
2023-01-17T06:25:45.344Z,5.70
2023-01-17T06:28:14.455Z,4.60
2023-01-17T06:30:42.460Z,5.72
2023-01-17T06:33:09.662Z,4.75
2023-01-17T06:35:40.975Z,6.03
2023-01-17T06:38:10.003Z,4.30
2023-01-17T06:40:36.980Z,3.95
2023-01-17T06:43:05.581Z,6.00
2023-01-17T06:45:34.656Z,5.90
2023-01-17T06:48:04.209Z,5.45
2023-01-17T06:50:31.762Z,5.13
2023-01-17T06:53:01.053Z,5.10
2023-01-17T06:55:29.288Z,4.97
2023-01-17T06:57:57.344Z,5.20
2023-01-17T07:00:24.461Z,5.22
2023-01-17T07:02:51.831Z,3.25
2023-01-17T07:05:19.031Z,4.72
2023-01-17T07:07:46.372Z,4.20
2023-01-17T07:10:15.245Z,4.47
2023-01-17T07:12:42.395Z,5.10
2023-01-17T07:15:09.986Z,4.30
2023-01-17T07:17:36.970Z,3.33
2023-01-17T07:20:04.240Z,4.53
2023-01-17T07:22:31.152Z,5.00
2023-01-17T07:25:00.750Z,4.07
2023-01-17T07:27:30.529Z,4.40
2023-01-17T07:29:57.982Z,5.13
2023-01-17T07:32:26.741Z,4.47
2023-01-17T07:34:54.306Z,2.80
2023-01-17T07:37:21.450Z,5.55
2023-01-17T07:39:48.359Z,4.80
2023-01-17T07:42:15.460Z,4.70
2023-01-17T07:44:44.126Z,4.70
2023-01-17T07:47:11.457Z,3.78
2023-01-17T07:49:38.373Z,4.90
2023-01-17T07:52:07.541Z,4.82
2023-01-17T07:54:34.765Z,5.35
2023-01-17T07:57:02.292Z,5.85
2023-01-17T07:59:29.320Z,5.28
2023-01-17T08:01:56.388Z,5.40
2023-01-17T08:04:26.465Z,5.47
2023-01-17T08:06:55.047Z,4.88
2023-01-17T08:09:22.127Z,4.95
2023-01-17T08:11:49.003Z,3.80
2023-01-17T08:14:15.898Z,6.15
2023-01-17T08:16:42.849Z,4.55
2023-01-17T08:19:10.399Z,4.65
2023-01-17T08:21:37.582Z,5.05
2023-01-17T08:24:04.784Z,5.15
2023-01-17T08:26:31.748Z,5.90
2023-01-17T08:29:03.384Z,6.90
2023-01-17T08:33:58.131Z,6.65
2023-01-17T08:36:25.924Z,6.00
2023-01-17T08:38:53.579Z,4.78
2023-01-17T08:41:21.471Z,5.25
2023-01-17T08:43:49.114Z,5.90
2023-01-17T08:46:16.878Z,5.95
2023-01-17T08:48:44.446Z,6.60
2023-01-17T08:51:11.967Z,7.03
2023-01-17T08:53:38.899Z,6.45
2023-01-17T08:56:06.138Z,6.43
2023-01-17T08:58:35.016Z,5.55
2023-01-17T09:01:06.566Z,5.55
2023-01-17T09:06:08.628Z,4.43
2023-01-17T09:08:36.126Z,5.35
2023-01-17T09:11:11.532Z,5.72
2023-01-17T09:13:40.433Z,4.78
2023-01-17T09:16:08.588Z,6.90
2023-01-17T09:18:36.766Z,5.75
2023-01-17T09:21:14.382Z,6.43
2023-01-17T09:23:41.722Z,6.57
2023-01-17T09:26:17.823Z,6.03
2023-01-17T09:28:44.682Z,5.78
2023-01-17T09:31:11.685Z,6.63
2023-01-17T09:33:41.091Z,8.27
2023-01-17T09:36:08.188Z,6.53
2023-01-17T09:38:35.053Z,7.40
2023-01-17T09:41:03.416Z,8.02
2023-01-17T09:43:41.528Z,7.55
2023-01-17T09:46:22.693Z,7.32
2023-01-17T09:49:00.807Z,4.65
2023-01-17T09:51:27.859Z,5.90
2023-01-17T09:53:55.347Z,5.00
2023-01-17T09:56:40.132Z,5.80
2023-01-17T09:59:33.123Z,4.13
2023-01-17T10:02:26.310Z,5.78
2023-01-17T10:05:07.393Z,5.60
2023-01-17T10:08:00.629Z,4.15
2023-01-17T10:10:30.865Z,5.55
2023-01-17T10:13:04.961Z,5.90
2023-01-17T10:16:01.443Z,5.85
2023-01-17T10:18:53.059Z,5.80
2023-01-17T10:21:42.378Z,6.60
2023-01-17T10:24:36.733Z,6.03
2023-01-17T10:27:13.022Z,6.20
2023-01-17T10:29:41.248Z,5.28
2023-01-17T10:32:12.716Z,6.18
2023-01-17T10:34:51.747Z,6.15
2023-01-17T10:37:24.418Z,5.50
2023-01-17T10:39:54.046Z,4.15
2023-01-17T10:42:26.389Z,5.95
2023-01-17T10:45:20.845Z,6.50
2023-01-17T10:47:53.555Z,6.15
2023-01-17T10:50:24.160Z,6.00
2023-01-17T10:53:07.481Z,7.05
2023-01-17T10:55:48.866Z,6.70
2023-01-17T10:58:15.796Z,5.38
2023-01-17T11:00:44.196Z,6.25
2023-01-17T11:03:13.752Z,6.78
2023-01-17T11:05:42.832Z,7.80
2023-01-17T11:08:14.520Z,5.45
2023-01-17T11:13:35.427Z,6.70
2023-01-17T11:16:10.777Z,6.93
2023-01-17T11:18:41.049Z,6.68
2023-01-17T11:21:16.581Z,6.28
2023-01-17T11:23:46.842Z,7.05
2023-01-17T11:26:30.605Z,7.28
2023-01-17T11:29:16.240Z,7.47
2023-01-17T11:31:43.137Z,8.75
2023-01-17T11:34:25.030Z,7.82
2023-01-17T11:37:17.246Z,6.68
2023-01-17T11:39:48.043Z,7.60
2023-01-17T11:42:36.632Z,8.17
2023-01-17T11:45:29.786Z,8.27
2023-01-17T11:48:15.175Z,7.93
2023-01-17T11:50:53.676Z,7.95
2023-01-17T11:53:24.910Z,7.97
2023-01-17T11:56:08.814Z,7.30
2023-01-17T11:58:39.937Z,8.82
2023-01-17T12:01:18.445Z,7.78
2023-01-17T12:04:11.045Z,6.90
2023-01-17T12:06:58.118Z,6.68
2023-01-17T12:09:48.217Z,7.38
2023-01-17T12:13:03.761Z,7.30
2023-01-17T12:15:45.338Z,7.40
2023-01-17T12:18:15.307Z,7.60
2023-01-17T12:21:00.628Z,7.82
2023-01-17T12:23:41.939Z,7.53
2023-01-17T12:26:21.875Z,8.30
2023-01-17T12:28:56.864Z,9.90
2023-01-17T12:31:32.598Z,8.02
2023-01-17T12:34:35.454Z,9.05
2023-01-17T12:37:23.537Z,7.60
2023-01-17T12:40:13.574Z,6.78
2023-01-17T12:42:56.605Z,8.45
2023-01-17T12:45:38.440Z,7.07
2023-01-17T12:50:51.329Z,6.32
2023-01-17T12:53:24.196Z,6.35
2023-01-17T12:56:00.363Z,8.10
2023-01-17T12:58:30.853Z,8.70
2023-01-17T13:01:05.460Z,7.57
2023-01-17T13:04:01.799Z,8.77
2023-01-17T13:06:36.025Z,8.30
2023-01-17T13:09:04.951Z,7.65
2023-01-17T13:11:43.828Z,7.75
2023-01-17T13:14:10.911Z,8.10
2023-01-17T13:17:03.771Z,8.82
2023-01-17T13:20:08.032Z,9.20
2023-01-17T13:22:37.892Z,9.50
2023-01-17T13:25:42.360Z,9.02
2023-01-17T13:28:40.036Z,9.57
2023-01-17T13:31:25.605Z,8.95
2023-01-17T13:34:04.975Z,10.95
2023-01-17T13:37:08.915Z,10.90
2023-01-17T13:39:57.570Z,11.02
2023-01-17T13:42:50.699Z,10.82
2023-01-17T13:45:25.982Z,9.77
2023-01-17T13:47:54.075Z,9.90
2023-01-17T13:50:57.980Z,9.27
2023-01-17T13:53:39.755Z,8.63
2023-01-17T13:58:50.186Z,9.55
2023-01-17T14:01:23.268Z,10.00
2023-01-17T14:03:50.359Z,10.45
2023-01-17T14:06:36.304Z,11.20
2023-01-17T14:09:21.989Z,13.25
2023-01-17T14:12:03.828Z,11.15
2023-01-17T14:17:25.625Z,6.93
2023-01-17T14:19:53.718Z,10.30
2023-01-17T14:22:20.555Z,11.18
2023-01-17T14:25:17.995Z,11.63
2023-01-17T14:27:51.532Z,12.90
2023-01-17T14:30:18.673Z,10.73
2023-01-17T14:33:01.122Z,10.98
2023-01-17T14:35:31.085Z,12.05
2023-01-17T14:37:58.202Z,12.55
2023-01-17T14:40:29.580Z,11.82
2023-01-17T14:43:05.634Z,11.07
2023-01-17T14:45:35.086Z,13.70
2023-01-17T14:48:05.722Z,11.25
2023-01-17T14:50:39.346Z,12.55
2023-01-17T14:53:29.885Z,12.30
2023-01-17T14:56:01.976Z,11.60
2023-01-17T14:58:28.868Z,12.43
2023-01-17T15:01:01.513Z,12.30
2023-01-17T15:03:30.653Z,11.93
2023-01-17T15:06:09.871Z,11.90
2023-01-17T15:08:36.844Z,11.73
2023-01-17T15:11:07.613Z,10.93
2023-01-17T15:13:44.664Z,11.33
2023-01-17T15:16:27.185Z,11.80
2023-01-17T15:18:55.632Z,10.68
2023-01-17T15:21:26.422Z,11.85
2023-01-17T15:23:56.305Z,12.07
2023-01-17T15:26:26.236Z,12.20
2023-01-17T15:29:00.181Z,10.73
2023-01-17T15:31:41.333Z,9.68
2023-01-17T15:34:13.967Z,13.93
2023-01-17T15:36:40.916Z,12.50
2023-01-17T15:39:20.348Z,11.07
2023-01-17T15:41:49.799Z,11.20
2023-01-17T15:44:47.091Z,11.35
2023-01-17T15:47:33.395Z,11.70
2023-01-17T15:50:02.479Z,13.00
2023-01-17T15:52:29.475Z,12.32
2023-01-17T15:55:14.832Z,12.40
2023-01-17T15:57:47.784Z,12.75
2023-01-17T16:00:19.179Z,13.50
2023-01-17T16:02:57.162Z,12.60
2023-01-17T16:05:24.420Z,12.25
2023-01-17T16:07:57.164Z,12.25
2023-01-17T16:10:28.224Z,12.20
2023-01-17T16:12:56.325Z,12.70
2023-01-17T16:15:24.384Z,12.52
2023-01-17T16:17:54.308Z,14.07
2023-01-17T16:20:38.091Z,12.40
2023-01-17T16:23:04.996Z,12.40
2023-01-17T16:25:34.475Z,14.02
2023-01-17T16:28:03.400Z,13.02
2023-01-17T16:30:30.640Z,13.55
2023-01-17T16:32:57.927Z,15.32
2023-01-17T16:35:28.240Z,14.40
2023-01-17T16:38:00.433Z,17.35
2023-01-17T16:40:30.901Z,15.82
2023-01-17T16:42:58.894Z,16.95
2023-01-17T16:45:26.120Z,16.02
2023-01-17T16:47:54.347Z,16.92
2023-01-17T16:50:24.489Z,17.45
2023-01-17T16:52:56.944Z,16.95
2023-01-17T16:55:24.993Z,16.08
2023-01-17T16:57:54.171Z,16.58
2023-01-17T17:00:22.718Z,16.63
2023-01-17T17:02:51.023Z,20.48
2023-01-17T17:05:18.234Z,15.90
2023-01-17T17:07:46.311Z,17.48
2023-01-17T17:10:19.459Z,17.70
2023-01-17T17:12:47.047Z,17.02
2023-01-17T17:15:14.184Z,18.17
2023-01-17T17:17:43.134Z,17.40
2023-01-17T17:20:13.225Z,17.45
2023-01-17T17:22:43.042Z,16.63
2023-01-17T17:25:11.780Z,17.35
2023-01-17T17:27:38.732Z,16.85
2023-01-17T17:30:06.344Z,19.00
2023-01-17T17:32:33.266Z,24.63
2023-01-17T17:35:00.437Z,18.75
2023-01-17T17:37:30.202Z,18.08
2023-01-17T17:39:57.509Z,17.92
2023-01-17T17:42:24.509Z,19.17
2023-01-17T17:44:51.542Z,18.08
2023-01-17T17:47:18.470Z,18.00
2023-01-17T17:49:45.319Z,18.63
2023-01-17T17:52:12.224Z,18.98
2023-01-17T17:54:39.101Z,18.35
2023-01-17T17:57:06.583Z,19.08
2023-01-17T17:59:33.786Z,18.75
2023-01-17T18:02:00.756Z,20.52
2023-01-17T18:04:27.846Z,22.00
2023-01-17T18:06:58.519Z,21.10
2023-01-17T18:09:25.525Z,20.13
2023-01-17T18:11:52.508Z,19.25
2023-01-17T18:14:22.144Z,20.17
2023-01-17T18:16:49.008Z,18.98
2023-01-17T18:19:18.858Z,21.98
2023-01-17T18:21:45.850Z,20.80
2023-01-17T18:24:15.546Z,18.67
2023-01-17T18:26:43.948Z,18.50
2023-01-17T18:29:15.712Z,17.85
2023-01-17T18:31:44.204Z,19.85
2023-01-17T18:34:16.786Z,19.52
2023-01-17T18:36:44.085Z,18.88
2023-01-17T18:39:13.502Z,19.90
2023-01-17T18:41:40.498Z,23.42
2023-01-17T18:44:08.079Z,20.27
2023-01-17T18:46:37.329Z,19.17
2023-01-17T18:49:04.986Z,19.25
2023-01-17T18:51:34.601Z,18.65
2023-01-17T18:54:05.907Z,24.30
2023-01-17T18:56:37.008Z,20.95
2023-01-17T18:59:06.880Z,21.52
2023-01-17T19:01:36.224Z,20.05
2023-01-17T19:04:04.706Z,20.88
2023-01-17T19:06:34.425Z,20.15
2023-01-17T19:09:02.724Z,19.75
2023-01-17T19:11:29.878Z,19.00
2023-01-17T19:13:57.167Z,19.27
2023-01-17T19:16:29.861Z,19.63
2023-01-17T19:18:58.399Z,18.92
2023-01-17T19:21:27.593Z,19.65
2023-01-17T19:23:55.550Z,18.85
2023-01-17T19:26:25.039Z,19.55
2023-01-17T19:28:52.138Z,19.58
2023-01-17T19:31:22.052Z,18.98
2023-01-17T19:33:51.685Z,20.15
2023-01-17T19:36:23.425Z,19.75
2023-01-17T19:39:03.528Z,19.90
2023-01-17T19:41:31.464Z,19.13
2023-01-17T19:44:00.659Z,22.02
2023-01-17T19:46:28.184Z,19.45
2023-01-17T19:48:56.220Z,23.40
2023-01-17T19:51:24.753Z,23.20
2023-01-17T19:53:51.594Z,19.60
2023-01-17T19:56:21.252Z,19.63
2023-01-17T19:58:48.487Z,23.65
2023-01-17T20:01:18.133Z,22.83
2023-01-17T20:03:46.486Z,18.67
2023-01-17T20:06:16.993Z,19.80
2023-01-17T20:08:45.274Z,19.92
2023-01-17T20:11:15.354Z,20.00
2023-01-17T20:13:42.458Z,19.35
2023-01-17T20:16:11.706Z,18.63
2023-01-17T20:18:38.707Z,22.92
2023-01-17T20:21:13.067Z,22.27
2023-01-17T20:23:43.075Z,20.27
2023-01-17T20:26:11.433Z,18.52
2023-01-17T20:28:40.635Z,18.70
2023-01-17T20:31:19.415Z,17.90
2023-01-17T20:33:47.154Z,19.10
2023-01-17T20:36:16.260Z,17.55
2023-01-17T20:38:44.121Z,19.00
2023-01-17T20:41:15.535Z,19.90
2023-01-17T20:43:43.912Z,17.80
2023-01-17T20:46:11.326Z,17.77
2023-01-17T20:48:47.410Z,18.90
2023-01-17T20:51:15.236Z,16.02
2023-01-17T20:53:43.512Z,18.60
2023-01-17T20:56:13.096Z,18.17
2023-01-17T20:58:40.443Z,16.85
2023-01-17T21:01:09.977Z,17.40
2023-01-17T21:03:38.094Z,18.02
2023-01-17T21:06:10.359Z,15.65
2023-01-17T21:08:42.001Z,16.80
2023-01-17T21:13:36.448Z,15.50
2023-01-17T21:16:03.897Z,16.08
2023-01-17T21:18:32.001Z,15.45
2023-01-17T21:21:14.190Z,16.52
2023-01-17T21:23:42.744Z,15.63
2023-01-17T21:26:12.871Z,16.38
2023-01-17T21:28:41.302Z,15.25
2023-01-17T21:31:18.181Z,15.77
2023-01-17T21:33:45.402Z,15.10
2023-01-17T21:36:12.452Z,15.27
2023-01-17T21:38:39.289Z,15.70
2023-01-17T21:41:06.490Z,15.32
2023-01-17T21:43:33.335Z,15.82
2023-01-17T21:46:05.603Z,16.15
2023-01-17T21:48:32.570Z,14.65
2023-01-17T21:51:07.177Z,15.77
2023-01-17T21:53:39.201Z,14.73
2023-01-17T21:56:27.161Z,15.48
2023-01-17T21:58:56.900Z,14.88
2023-01-17T22:01:29.529Z,14.73
2023-01-17T22:03:57.708Z,15.63
2023-01-17T22:06:27.557Z,15.30
2023-01-17T22:08:54.510Z,14.85
2023-01-17T22:11:24.378Z,15.27
2023-01-17T22:13:51.231Z,15.45
2023-01-17T22:16:21.109Z,15.25
2023-01-17T22:18:47.967Z,15.23
2023-01-17T22:21:19.979Z,15.40
2023-01-17T22:23:52.502Z,17.02
2023-01-17T22:26:25.085Z,15.15
2023-01-17T22:28:53.923Z,15.13
2023-01-17T22:31:23.345Z,14.55
2023-01-17T22:33:55.196Z,14.85
2023-01-17T22:36:22.648Z,15.05
2023-01-17T22:38:49.752Z,15.50
2023-01-17T22:41:20.127Z,15.60
2023-01-17T22:43:56.017Z,16.10
2023-01-17T22:46:27.180Z,15.50
2023-01-17T22:48:55.435Z,15.30
2023-01-17T22:51:23.754Z,14.00
2023-01-17T22:53:56.009Z,14.90
2023-01-17T22:56:28.765Z,15.63
2023-01-17T22:58:55.656Z,14.80
2023-01-17T23:01:25.567Z,13.77
2023-01-17T23:03:57.717Z,14.40
2023-01-17T23:06:30.459Z,13.98
2023-01-17T23:09:00.592Z,13.85
2023-01-17T23:11:45.021Z,14.35
2023-01-17T23:14:23.286Z,14.48
2023-01-17T23:17:16.982Z,14.07
2023-01-17T23:19:47.964Z,14.85
2023-01-17T23:22:20.408Z,14.55
2023-01-17T23:24:50.354Z,14.63
2023-01-17T23:27:51.634Z,13.85
2023-01-17T23:30:21.672Z,14.60
2023-01-17T23:32:53.755Z,14.00
2023-01-17T23:35:23.723Z,14.43
2023-01-17T23:38:09.017Z,14.20
2023-01-17T23:40:37.455Z,14.95
2023-01-17T23:43:22.892Z,15.23
2023-01-17T23:45:54.743Z,14.43
2023-01-17T23:48:25.425Z,15.35
2023-01-17T23:51:00.413Z,14.70
2023-01-17T23:53:27.455Z,15.20
2023-01-17T23:55:56.526Z,14.73
2023-01-17T23:58:25.765Z,15.77
